Time;durP1;ratioP1;P1;durP2;ratioP2;P2;SDS_P1;SDS_P2;PMS_P1;PMS_P2;Temp;Humidity;BMP_temperature;BMP_pressure;BME280_temperature;BME280_humidity;BME280_pressure;Samples;Min_cycle;Max_cycle;Signal;HPM_P1;HPM_P2
2023/06/02 00:00:50;;;;;;;25.60;10.40;;;;;;;13.25;100.00;100819.98;107230;1282;59027;-82
2023/06/02 00:03:15;;;;;;;26.40;10.60;;;;;;;13.18;100.00;100820.68;107186;1282;73295;-83
2023/06/02 00:05:41;;;;;;;39.00;9.90;;;;;;;13.19;100.00;100817.80;107162;1282;59041;-83
2023/06/02 00:08:07;;;;;;;22.70;9.20;;;;;;;13.19;100.00;100813.97;107237;1281;59091;-83
2023/06/02 00:10:32;;;;;;;26.60;9.60;;;;;;;13.13;100.00;100815.38;107172;1282;59454;-83
2023/06/02 00:12:58;;;;;;;28.30;9.20;;;;;;;13.03;100.00;100817.50;107239;1282;59007;-82
2023/06/02 00:15:23;;;;;;;18.00;8.50;;;;;;;13.05;100.00;100815.75;107152;1281;61802;-83
2023/06/02 00:17:49;;;;;;;20.10;7.70;;;;;;;13.10;100.00;100814.58;107186;1282;59054;-83
2023/06/02 00:20:17;;;;;;;17.00;7.50;;;;;;;13.09;100.00;100812.52;107211;1281;59402;-83
2023/06/02 00:22:46;;;;;;;14.50;7.30;;;;;;;13.10;100.00;100812.02;107104;1283;74471;-83
2023/06/02 00:25:12;;;;;;;16.70;8.00;;;;;;;13.12;100.00;100814.13;107115;1282;73471;-82
2023/06/02 00:27:37;;;;;;;18.90;7.10;;;;;;;13.06;100.00;100809.80;107146;1282;59074;-83
2023/06/02 00:30:03;;;;;;;18.50;7.10;;;;;;;13.05;100.00;100810.20;107170;1282;59241;-82
2023/06/02 00:32:29;;;;;;;17.00;6.90;;;;;;;12.99;100.00;100809.64;107177;1281;58975;-83
2023/06/02 00:34:54;;;;;;;15.90;6.40;;;;;;;12.98;100.00;100807.70;107234;1282;59113;-83
2023/06/02 00:37:20;;;;;;;16.40;7.50;;;;;;;12.95;100.00;100807.11;107160;1282;61839;-83
2023/06/02 00:39:45;;;;;;;19.70;7.70;;;;;;;12.90;100.00;100808.83;106861;1283;59157;-83
2023/06/02 00:42:11;;;;;;;18.20;6.90;;;;;;;12.89;100.00;100807.48;107170;1282;59341;-83
2023/06/02 00:44:37;;;;;;;18.80;7.00;;;;;;;12.74;100.00;100811.95;107207;1282;59060;-83
2023/06/02 00:47:02;;;;;;;12.90;6.10;;;;;;;12.67;100.00;100809.35;107166;1282;59066;-83
2023/06/02 00:49:28;;;;;;;19.30;6.20;;;;;;;12.61;100.00;100810.63;107065;1281;59984;-84
2023/06/02 00:51:53;;;;;;;13.20;5.30;;;;;;;12.60;100.00;100811.40;106756;1282;59141;-83
2023/06/02 00:54:19;;;;;;;12.70;5.40;;;;;;;12.55;100.00;100810.75;107157;1282;59499;-83
2023/06/02 00:56:45;;;;;;;13.10;5.70;;;;;;;12.52;100.00;100814.73;107110;1282;59054;-83
2023/06/02 00:59:11;;;;;;;13.30;5.60;;;;;;;12.52;100.00;100813.44;107152;1282;58945;-84
2023/06/02 01:01:38;;;;;;;13.30;5.30;;;;;;;12.51;100.00;100812.73;107206;1281;59107;-84
2023/06/02 01:04:05;;;;;;;14.40;5.90;;;;;;;12.52;100.00;100809.81;107183;1282;73647;-84
2023/06/02 01:06:37;;;;;;;14.10;5.20;;;;;;;12.54;100.00;100814.73;107178;1282;72355;-83
2023/06/02 01:09:05;;;;;;;10.70;5.50;;;;;;;12.55;100.00;100816.31;106776;1283;61584;-83
2023/06/02 01:11:32;;;;;;;10.90;5.00;;;;;;;12.46;100.00;100820.71;107187;1282;61169;-83
2023/06/02 01:13:59;;;;;;;8.50;5.00;;;;;;;12.41;100.00;100821.95;107174;1282;75266;-84
2023/06/02 01:16:27;;;;;;;11.90;5.10;;;;;;;12.39;100.00;100819.51;107165;1282;73457;-83
2023/06/02 01:18:53;;;;;;;10.90;5.30;;;;;;;12.41;100.00;100820.22;107148;1282;73494;-83
2023/06/02 01:21:23;;;;;;;14.30;6.30;;;;;;;12.44;100.00;100818.88;107164;1282;58990;-83
2023/06/02 01:23:53;;;;;;;14.70;6.00;;;;;;;12.43;100.00;100815.84;107151;1282;61076;-83
2023/06/02 01:26:20;;;;;;;15.80;6.30;;;;;;;12.44;100.00;100814.44;107161;1282;75327;-83
2023/06/02 01:28:46;;;;;;;14.60;6.40;;;;;;;12.48;100.00;100815.41;107169;1282;73476;-83
2023/06/02 01:31:16;;;;;;;20.10;7.50;;;;;;;12.50;100.00;100815.88;106946;1283;59289;-83
2023/06/02 01:33:50;;;;;;;16.70;7.70;;;;;;;12.51;100.00;100818.89;107139;1283;62814;-83
2023/06/02 01:36:19;;;;;;;;;;;;;;;12.51;100.00;100818.41;107184;1282;61061;-83
2023/06/02 01:38:46;;;;;;;18.90;7.30;;;;;;;12.44;100.00;100820.17;107148;1282;74288;-83
2023/06/02 01:41:13;;;;;;;15.90;6.60;;;;;;;12.41;100.00;100821.58;107164;1282;73272;-83
2023/06/02 01:43:40;;;;;;;14.70;6.50;;;;;;;12.39;100.00;100821.23;107138;1282;73360;-83
2023/06/02 01:46:06;;;;;;;14.60;6.90;;;;;;;12.33;100.00;100823.66;107115;1282;61803;-83
2023/06/02 01:48:32;;;;;;;18.30;6.60;;;;;;;12.33;100.00;100824.89;107145;1282;59126;-83
2023/06/02 01:50:57;;;;;;;21.30;8.10;;;;;;;12.38;100.00;100822.27;106775;1282;59124;-84
2023/06/02 01:53:26;;;;;;;16.30;8.20;;;;;;;12.42;100.00;100824.22;107155;1282;59100;-83
2023/06/02 01:55:53;;;;;;;15.80;7.60;;;;;;;12.54;100.00;100826.58;106859;1282;59030;-84
2023/06/02 01:58:18;;;;;;;13.20;7.00;;;;;;;12.61;100.00;100830.59;107138;1282;58992;-83
2023/06/02 02:00:44;;;;;;;14.30;7.30;;;;;;;12.66;100.00;100831.15;107161;1282;59101;-84
2023/06/02 02:03:09;;;;;;;14.10;7.20;;;;;;;12.62;100.00;100831.56;107194;1282;58985;-83
2023/06/02 02:05:35;;;;;;;16.20;7.30;;;;;;;12.63;100.00;100830.80;107153;1282;59141;-84
2023/06/02 02:08:00;;;;;;;16.00;7.60;;;;;;;12.70;100.00;100831.90;107187;1282;59169;-84
2023/06/02 02:10:26;;;;;;;17.90;8.00;;;;;;;12.75;100.00;100832.08;107171;1282;59074;-84
2023/06/02 02:13:10;;;;;;;20.50;7.70;;;;;;;12.82;100.00;100826.04;107144;1282;59077;-84
2023/06/02 02:15:35;;;;;;;17.10;7.60;;;;;;;12.91;100.00;100827.55;107164;1282;72198;-84
2023/06/02 02:18:03;;;;;;;18.30;7.90;;;;;;;13.03;100.00;100827.18;107144;1283;59945;-83
2023/06/02 02:20:28;;;;;;;20.30;7.50;;;;;;;13.13;100.00;100823.93;106433;1283;59187;-84
2023/06/02 02:22:54;;;;;;;18.30;7.20;;;;;;;13.21;100.00;100829.18;107193;1283;59080;-83
2023/06/02 02:25:20;;;;;;;17.30;7.00;;;;;;;13.28;100.00;100827.79;107153;1282;59042;-83
2023/06/02 02:27:45;;;;;;;14.20;7.40;;;;;;;13.45;100.00;100830.65;107186;1282;59240;-84
2023/06/02 02:30:17;;;;;;;16.00;7.00;;;;;;;13.54;100.00;100825.98;107154;1282;59062;-84
2023/06/02 02:32:44;;;;;;;16.60;7.00;;;;;;;13.65;100.00;100827.68;107168;1283;61139;-83
2023/06/02 02:35:10;;;;;;;14.20;6.60;;;;;;;13.76;100.00;100825.77;107132;1282;75503;-83
2023/06/02 02:37:36;;;;;;;13.40;7.00;;;;;;;13.90;100.00;100827.94;106973;1282;329986;-84
2023/06/02 02:40:03;;;;;;;14.20;6.80;;;;;;;14.04;100.00;100829.35;107171;1282;59096;-83
2023/06/02 02:42:28;;;;;;;17.10;7.00;;;;;;;14.16;100.00;100832.61;106845;1283;59050;-84
2023/06/02 02:44:54;;;;;;;14.20;5.90;;;;;;;14.38;100.00;100835.50;107155;1282;59042;-84
2023/06/02 02:47:20;;;;;;;12.20;6.20;;;;;;;14.65;100.00;100834.33;107195;1282;59022;-83
2023/06/02 02:49:46;;;;;;;11.80;5.60;;;;;;;14.99;100.00;100837.30;106829;1285;59477;-84
2023/06/02 02:52:12;;;;;;;16.70;5.80;;;;;;;15.27;100.00;100833.70;107176;1282;58999;-84
2023/06/02 02:54:38;;;;;;;13.50;5.90;;;;;;;15.42;100.00;100834.92;107153;1282;60049;-84
2023/06/02 02:57:07;;;;;;;11.80;5.30;;;;;;;15.51;100.00;100831.30;107143;1283;59064;-84
2023/06/02 02:59:36;;;;;;;14.20;5.40;;;;;;;15.55;100.00;100834.20;107087;1283;74267;-83
2023/06/02 03:02:03;;;;;;;10.20;5.00;;;;;;;15.56;100.00;100830.66;107139;1282;72203;-83
2023/06/02 03:04:31;;;;;;;12.30;5.20;;;;;;;15.63;100.00;100832.81;107158;1282;62740;-84
2023/06/02 03:06:57;;;;;;;12.10;5.50;;;;;;;15.82;100.00;100831.83;106868;1282;61119;-84
2023/06/02 03:09:22;;;;;;;13.20;6.00;;;;;;;15.97;100.00;100830.52;107220;1282;59132;-83
2023/06/02 03:11:48;;;;;;;12.70;5.80;;;;;;;16.12;100.00;100829.67;107157;1285;59044;-84
2023/06/02 03:14:14;;;;;;;11.80;5.20;;;;;;;16.38;100.00;100829.77;106832;1282;59129;-83
2023/06/02 03:16:41;;;;;;;12.00;4.60;;;;;;;16.77;100.00;100830.12;107166;1282;58976;-84
2023/06/02 03:19:13;;;;;;;7.70;4.40;;;;;;;17.24;100.00;100825.27;107157;1282;75232;-83
2023/06/02 03:21:43;;;;;;;14.00;4.50;;;;;;;17.81;100.00;100827.09;106851;1283;74140;-83
2023/06/02 03:24:16;;;;;;;9.80;3.80;;;;;;;18.43;100.00;100822.05;107150;1282;73291;-84
2023/06/02 03:26:43;;;;;;;12.00;4.30;;;;;;;19.03;100.00;100820.45;107018;1284;61728;-84
2023/06/02 03:29:09;;;;;;;9.90;4.30;;;;;;;19.56;100.00;100818.50;107182;1282;58857;-84
2023/06/02 03:31:35;;;;;;;7.80;3.90;;;;;;;20.06;100.00;100817.94;107175;1282;59017;-84
2023/06/02 03:34:02;;;;;;;7.20;3.80;;;;;;;20.57;100.00;100814.36;107173;1282;59039;-84
2023/06/02 03:36:29;;;;;;;12.00;3.90;;;;;;;21.01;100.00;100816.69;107160;1283;59003;-84
2023/06/02 03:38:54;;;;;;;12.80;3.90;;;;;;;21.49;100.00;100814.30;107162;1283;59754;-84
2023/06/02 03:41:20;;;;;;;10.90;3.60;;;;;;;22.00;100.00;100814.89;107210;1282;59045;-84
2023/06/02 03:43:46;;;;;;;13.50;4.00;;;;;;;22.49;100.00;100814.02;107153;1282;59128;-85
2023/06/02 03:46:11;;;;;;;8.10;3.90;;;;;;;22.99;100.00;100808.55;106913;1281;59399;-84
2023/06/02 03:48:37;;;;;;;6.90;3.50;;;;;;;23.43;100.00;100804.71;107221;1282;59824;-85
2023/06/02 03:51:03;;;;;;;12.20;3.80;;;;;;;24.00;100.00;100803.76;107167;1282;61526;-85
2023/06/02 03:53:30;;;;;;;18.00;4.50;;;;;;;24.53;100.00;100804.41;107196;1283;58993;-84
2023/06/02 03:55:55;;;;;;;6.10;3.70;;;;;;;25.06;100.00;100805.20;107178;1283;59366;-83
2023/06/02 03:58:21;;;;;;;12.60;4.10;;;;;;;25.63;97.42;100803.37;107168;1282;59070;-84
2023/06/02 04:00:48;;;;;;;10.50;3.20;;;;;;;26.05;90.89;100807.01;107167;1281;58979;-83
2023/06/02 04:03:14;;;;;;;8.70;3.30;;;;;;;26.06;87.81;100805.22;107079;1284;59194;-83
2023/06/02 04:05:40;;;;;;;8.60;3.50;;;;;;;25.99;84.01;100804.36;107203;1281;59454;-83
2023/06/02 04:08:06;;;;;;;13.50;4.00;;;;;;;26.06;83.08;100807.42;107170;1282;59061;-85
2023/06/02 04:10:33;;;;;;;10.10;3.20;;;;;;;26.11;83.02;100807.38;107185;1283;59025;-84
2023/06/02 04:12:58;;;;;;;7.60;3.10;;;;;;;26.19;78.68;100807.16;106820;1282;59229;-83
2023/06/02 04:15:24;;;;;;;6.20;2.80;;;;;;;26.26;75.95;100810.24;107230;1282;59067;-84
2023/06/02 04:17:50;;;;;;;8.00;3.50;;;;;;;26.31;74.59;100807.89;107170;1282;74176;-82
2023/06/02 04:20:16;;;;;;;7.60;3.00;;;;;;;26.43;72.85;100812.90;107154;1283;59428;-84
2023/06/02 04:22:41;;;;;;;7.30;2.60;;;;;;;26.55;70.37;100811.82;107157;1283;59535;-85
2023/06/02 04:25:07;;;;;;;4.80;3.00;;;;;;;26.80;67.75;100816.60;107204;1281;59048;-84
2023/06/02 04:27:33;;;;;;;7.70;3.70;;;;;;;27.31;66.68;100814.41;107063;1283;59056;-83
2023/06/02 04:29:58;;;;;;;6.10;3.30;;;;;;;27.85;64.60;100808.59;107278;1283;58962;-83
2023/06/02 04:32:24;;;;;;;8.60;3.70;;;;;;;28.29;63.61;100810.45;107154;1283;58980;-83
2023/06/02 04:34:50;;;;;;;8.90;3.60;;;;;;;28.60;62.36;100809.99;107219;1283;59093;-85
2023/06/02 04:37:16;;;;;;;7.90;3.70;;;;;;;28.89;61.01;100812.56;107222;1282;59081;-85
2023/06/02 04:39:46;;;;;;;7.00;3.40;;;;;;;29.21;59.61;100810.85;107185;1283;59309;-84
2023/06/02 04:42:15;;;;;;;18.10;3.90;;;;;;;29.55;58.78;100807.59;107161;1282;72516;-86
2023/06/02 04:44:44;;;;;;;11.20;3.60;;;;;;;30.03;58.04;100812.00;107019;1283;61132;-85
2023/06/02 04:47:10;;;;;;;9.40;4.00;;;;;;;30.46;56.24;100813.54;107195;1282;59020;-85
2023/06/02 04:49:37;;;;;;;6.80;4.00;;;;;;;30.71;53.87;100810.55;107146;1281;59368;-84
2023/06/02 04:52:09;;;;;;;13.40;4.40;;;;;;;31.07;52.80;100816.08;107176;1282;58934;-85
2023/06/02 04:54:35;;;;;;;7.00;3.90;;;;;;;31.56;51.53;100814.70;107068;1283;73430;-86
2023/06/02 04:57:05;;;;;;;5.60;4.10;;;;;;;31.96;50.60;100813.80;107173;1281;59014;-85
2023/06/02 04:59:33;;;;;;;10.10;4.50;;;;;;;32.40;48.71;100809.72;107207;1282;61044;-85
2023/06/02 05:01:59;;;;;;;18.00;5.00;;;;;;;32.60;48.07;100813.73;107185;1283;75504;-85
2023/06/02 05:04:25;;;;;;;11.40;4.70;;;;;;;33.11;48.06;100811.70;107139;1285;59011;-85
2023/06/02 05:06:51;;;;;;;12.10;4.40;;;;;;;33.54;46.38;100815.71;107166;1282;59056;-85
2023/06/02 05:09:17;;;;;;;10.80;4.70;;;;;;;33.82;44.92;100814.09;107034;1283;59034;-85
2023/06/02 05:11:43;;;;;;;8.40;4.60;;;;;;;34.16;44.42;100815.46;107041;1282;59135;-85
2023/06/02 05:14:09;;;;;;;11.30;5.30;;;;;;;34.20;43.82;100817.10;107166;1285;58918;-85
2023/06/02 05:16:35;;;;;;;13.20;4.90;;;;;;;34.13;44.12;100813.66;106838;1283;59164;-85
2023/06/02 05:19:01;;;;;;;11.60;5.30;;;;;;;34.09;43.99;100817.30;107140;1283;59088;-85
2023/06/02 05:21:28;;;;;;;13.30;5.10;;;;;;;34.29;43.54;100821.38;107212;1282;58998;-84
2023/06/02 05:23:54;;;;;;;11.10;5.20;;;;;;;34.35;43.77;100818.76;107171;1282;75433;-85
2023/06/02 05:26:20;;;;;;;12.30;5.30;;;;;;;34.26;43.35;100822.77;107220;1282;59082;-85
2023/06/02 05:28:48;;;;;;;11.10;5.40;;;;;;;34.03;43.66;100825.90;107177;1283;59002;-85
2023/06/02 05:31:14;;;;;;;10.60;5.50;;;;;;;34.10;43.44;100823.59;107147;1282;61064;-85
2023/06/02 05:33:39;;;;;;;15.80;5.40;;;;;;;34.50;41.85;100826.42;107078;1282;59510;-85
2023/06/02 05:36:05;;;;;;;11.50;5.10;;;;;;;34.45;41.11;100829.11;107074;1283;59385;-86
2023/06/02 05:38:30;;;;;;;11.20;5.40;;;;;;;34.53;40.43;100825.51;107164;1283;59357;-85
2023/06/02 05:40:56;;;;;;;9.30;4.90;;;;;;;34.47;40.49;100827.10;107160;1282;59054;-84
2023/06/02 05:43:21;;;;;;;12.00;5.50;;;;;;;34.65;40.12;100827.44;107192;1282;61034;-84
2023/06/02 05:45:47;;;;;;;9.60;4.80;;;;;;;34.91;40.22;100829.27;107188;1282;59140;-85
2023/06/02 05:48:12;;;;;;;9.60;5.20;;;;;;;35.26;39.98;100832.05;106860;1283;59430;-85
2023/06/02 05:50:41;;;;;;;12.50;6.50;;;;;;;35.12;39.80;100830.66;107034;1281;59437;-85
2023/06/02 05:53:06;;;;;;;10.40;5.70;;;;;;;35.23;40.76;100827.45;107050;1283;59127;-85
2023/06/02 05:55:32;;;;;;;16.80;6.60;;;;;;;35.76;40.40;100824.27;107158;1283;59377;-86
2023/06/02 05:57:59;;;;;;;12.80;6.60;;;;;;;36.31;39.75;100823.34;107234;1282;58985;-86
2023/06/02 06:00:24;;;;;;;17.20;6.30;;;;;;;36.85;39.12;100815.40;107050;1283;59167;-86
2023/06/02 06:02:50;;;;;;;15.10;6.50;;;;;;;37.40;38.03;100817.09;107037;1283;59051;-85
2023/06/02 06:05:16;;;;;;;10.10;6.80;;;;;;;37.46;38.63;100816.21;107214;1282;58927;-86
2023/06/02 06:07:41;;;;;;;11.70;5.60;;;;;;;37.65;37.20;100811.49;107187;1283;59565;-86
2023/06/02 06:10:07;;;;;;;10.50;6.20;;;;;;;38.11;36.56;100818.08;107079;1283;59084;-86
2023/06/02 06:12:33;;;;;;;12.50;5.70;;;;;;;38.79;35.70;100812.02;107183;1282;59033;-85
2023/06/02 06:14:58;;;;;;;6.60;4.70;;;;;;;39.01;34.67;100820.21;106758;1283;59092;-86
2023/06/02 06:17:24;;;;;;;8.80;4.70;;;;;;;38.89;34.28;100821.29;107237;1282;59050;-86
2023/06/02 06:19:49;;;;;;;7.80;4.90;;;;;;;39.04;33.45;100822.61;106854;1282;74441;-87
2023/06/02 06:22:15;;;;;;;11.90;5.80;;;;;;;39.04;32.76;100823.82;107144;1283;59099;-86
2023/06/02 06:24:40;;;;;;;8.70;4.30;;;;;;;38.62;32.38;100818.32;107048;1281;58989;-85
2023/06/02 06:27:07;;;;;;;7.90;4.60;;;;;;;38.30;32.03;100826.00;107175;1283;58997;-85
2023/06/02 06:29:33;;;;;;;7.60;4.70;;;;;;;38.14;32.70;100823.38;107196;1283;59060;-85
2023/06/02 06:31:59;;;;;;;12.80;4.40;;;;;;;38.45;32.40;100819.15;107190;1282;59064;-85
2023/06/02 06:34:25;;;;;;;7.90;4.20;;;;;;;39.09;31.51;100819.52;107194;1282;60263;-85
2023/06/02 06:36:51;;;;;;;7.80;4.40;;;;;;;39.67;30.01;100819.02;107234;1281;59168;-85
2023/06/02 06:39:17;;;;;;;9.40;4.20;;;;;;;40.18;29.14;100817.86;107202;1282;59071;-86
2023/06/02 06:41:42;;;;;;;10.40;4.30;;;;;;;40.53;28.82;100821.33;107176;1282;59073;-86
2023/06/02 06:44:08;;;;;;;6.50;4.00;;;;;;;40.84;28.54;100817.07;107060;1283;58979;-86
2023/06/02 06:46:33;;;;;;;9.80;3.50;;;;;;;40.89;27.93;100813.71;107264;1282;59101;-86
2023/06/02 06:48:59;;;;;;;9.10;3.90;;;;;;;41.00;27.61;100811.77;107226;1283;75070;-85
2023/06/02 06:51:25;;;;;;;10.50;3.90;;;;;;;41.30;27.20;100811.52;107111;1281;59205;-86
2023/06/02 06:53:50;;;;;;;10.00;5.10;;;;;;;41.55;27.47;100810.73;107135;1282;60014;-85
2023/06/02 06:56:16;;;;;;;11.90;5.20;;;;;;;41.53;27.31;100813.84;107148;1283;59006;-86
2023/06/02 06:58:42;;;;;;;6.80;5.00;;;;;;;41.70;27.31;100810.72;107059;1282;59074;-85
2023/06/02 07:01:07;;;;;;;10.60;4.90;;;;;;;41.62;27.02;100811.15;107233;1282;59025;-87
2023/06/02 07:03:33;;;;;;;7.60;4.40;;;;;;;41.55;26.82;100813.15;107075;1283;59104;-86
2023/06/02 07:06:00;;;;;;;9.90;5.30;;;;;;;41.60;26.01;100813.04;107210;1282;59019;-86
2023/06/02 07:08:25;;;;;;;6.70;4.90;;;;;;;41.65;25.30;100809.80;106521;1282;59185;-85
2023/06/02 07:10:51;;;;;;;10.30;5.60;;;;;;;41.79;24.94;100807.73;107080;1283;59461;-85
2023/06/02 07:13:18;;;;;;;9.30;4.50;;;;;;;42.10;24.37;100804.58;106855;1283;59118;-86
2023/06/02 07:15:44;;;;;;;6.80;4.60;;;;;;;42.36;23.55;100804.40;107168;1282;59351;-85
2023/06/02 07:18:09;;;;;;;6.40;4.80;;;;;;;42.24;23.34;100805.27;106742;1286;59031;-85
2023/06/02 07:20:35;;;;;;;8.10;5.30;;;;;;;42.22;23.02;100807.30;107273;1282;59057;-85
2023/06/02 07:23:00;;;;;;;7.60;4.60;;;;;;;42.60;23.18;100802.64;107118;1283;73314;-85
2023/06/02 07:25:26;;;;;;;7.00;4.50;;;;;;;42.62;22.33;100804.42;107201;1281;59555;-84
2023/06/02 07:27:53;;;;;;;8.50;4.30;;;;;;;42.36;22.79;100804.81;107202;1282;58983;-90
2023/06/02 07:30:19;;;;;;;10.80;4.20;;;;;;;42.24;22.68;100804.90;106893;1281;59121;-88
2023/06/02 07:32:45;;;;;;;13.40;5.50;;;;;;;42.13;22.56;100805.67;107181;1282;59509;-88
2023/06/02 07:35:10;;;;;;;12.90;5.40;;;;;;;42.18;22.37;100801.40;107219;1281;59107;-86
2023/06/02 07:37:36;;;;;;;21.50;7.30;;;;;;;42.35;22.15;100804.61;107208;1282;59433;-88
2023/06/02 07:40:02;;;;;;;15.80;7.50;;;;;;;42.72;22.27;100804.17;106835;1283;61316;-87
2023/06/02 07:42:28;;;;;;;22.30;6.80;;;;;;;42.81;22.08;100803.36;106902;1282;59056;-87
2023/06/02 07:44:54;;;;;;;14.90;6.00;;;;;;;42.98;22.25;100802.20;107086;1283;59097;-87
2023/06/02 07:47:20;;;;;;;15.50;6.00;;;;;;;43.08;21.95;100802.10;107183;1282;59890;-87
2023/06/02 07:49:46;;;;;;;12.60;6.80;;;;;;;43.33;21.84;100797.45;107172;1282;59088;-87
2023/06/02 07:52:11;;;;;;;14.10;8.20;;;;;;;43.26;21.62;100799.30;106819;1281;59104;-88
2023/06/02 07:54:42;;;;;;;12.30;6.90;;;;;;;43.21;21.62;100798.11;107254;1282;59440;-87
2023/06/02 07:57:08;;;;;;;12.50;6.20;;;;;;;43.17;21.98;100796.16;106888;1282;73412;-87
2023/06/02 07:59:34;;;;;;;14.60;6.80;;;;;;;43.16;21.05;100799.85;107210;1282;59011;-88
2023/06/02 08:01:59;;;;;;;15.80;7.10;;;;;;;43.53;21.36;100796.59;107104;1283;59080;-86
2023/06/02 08:04:27;;;;;;;11.70;6.20;;;;;;;43.83;20.63;100796.70;107079;1283;59661;-85
2023/06/02 08:06:56;;;;;;;16.80;6.00;;;;;;;43.61;19.72;100790.59;107174;1281;59118;-84
2023/06/02 08:09:23;;;;;;;12.50;6.00;;;;;;;43.29;20.03;100794.33;106742;1283;72625;-83
2023/06/02 08:11:49;;;;;;;11.80;4.40;;;;;;;43.25;20.28;100799.70;107170;1282;59034;-84
2023/06/02 08:14:15;;;;;;;8.00;4.30;;;;;;;42.89;19.13;100802.52;106964;1285;59466;-83
2023/06/02 08:16:41;;;;;;;9.60;4.80;;;;;;;42.50;19.79;100800.36;106805;1285;59176;-83
2023/06/02 08:19:07;;;;;;;16.60;5.70;;;;;;;42.27;19.96;100800.84;106891;1285;59132;-83
2023/06/02 08:21:39;;;;;;;7.00;4.30;;;;;;;42.29;20.62;100799.71;106628;1286;59182;-84
2023/06/02 08:24:05;;;;;;;10.00;4.20;;;;;;;42.13;20.22;100801.61;106301;1288;61193;-83
2023/06/02 08:26:31;;;;;;;8.00;4.40;;;;;;;41.99;19.86;100801.55;106280;1288;59171;-85
2023/06/02 08:28:57;;;;;;;9.30;4.30;;;;;;;41.92;20.43;100801.29;106437;1288;59235;-84
2023/06/02 08:31:22;;;;;;;12.70;4.90;;;;;;;41.63;20.84;100801.19;106420;1288;59107;-83
2023/06/02 08:33:54;;;;;;;10.90;6.30;;;;;;;41.56;20.95;100801.71;106292;1288;59160;-83
2023/06/02 08:36:19;;;;;;;;;;;;;;;41.70;20.97;100801.15;106183;1292;61035;-83
2023/06/02 08:38:51;;;;;;;13.70;5.90;;;;;;;41.94;20.37;100798.50;106193;1292;59451;-84
2023/06/02 08:41:17;;;;;;;13.80;6.50;;;;;;;41.63;20.46;100797.84;106153;1292;75465;-83
2023/06/02 08:43:44;;;;;;;11.20;5.90;;;;;;;41.49;21.07;100795.11;106070;1293;59421;-83
2023/06/02 08:46:15;;;;;;;9.70;6.40;;;;;;;41.48;21.56;100793.14;106152;1292;73484;-83
2023/06/02 08:48:47;;;;;;;10.60;5.90;;;;;;;41.34;21.70;100791.22;106154;1292;60121;-82
2023/06/02 08:51:23;;;;;;;10.60;6.50;;;;;;;41.41;21.54;100793.66;105980;1289;59945;-82
2023/06/02 08:53:49;;;;;;;13.50;6.60;;;;;;;41.71;21.35;100793.06;106378;1290;74717;-82
2023/06/02 08:56:15;;;;;;;16.30;6.60;;;;;;;41.62;21.45;100793.36;106682;1285;59087;-82
2023/06/02 08:58:45;;;;;;;16.70;6.70;;;;;;;41.60;21.58;100792.16;106713;1285;59170;-83
2023/06/02 09:01:13;;;;;;;13.80;6.30;;;;;;;41.64;21.38;100792.73;106708;1285;61208;-83
2023/06/02 09:03:40;;;;;;;16.70;6.20;;;;;;;41.62;21.09;100788.45;106689;1285;58951;-83
2023/06/02 09:06:29;;;;;;;10.60;6.20;;;;;;;41.61;20.78;100784.42;106469;1285;75362;-82
2023/06/02 09:09:00;;;;;;;10.90;6.10;;;;;;;41.20;20.95;100782.58;107196;1282;73970;-82
2023/06/02 09:11:30;;;;;;;15.30;6.00;;;;;;;41.16;20.75;100783.08;107179;1282;73365;-83
2023/06/02 09:13:57;;;;;;;17.80;6.70;;;;;;;40.84;20.66;100784.75;107180;1282;59995;-83
2023/06/02 09:16:23;;;;;;;10.90;5.90;;;;;;;40.43;21.16;100784.88;107213;1282;60368;-84
2023/06/02 09:18:59;;;;;;;12.70;6.00;;;;;;;40.57;21.37;100784.67;107200;1282;58984;-81
2023/06/02 09:21:32;;;;;;;12.90;5.70;;;;;;;40.72;22.12;100777.66;107162;1282;74246;-83
2023/06/02 09:24:00;;;;;;;11.00;6.00;;;;;;;40.68;22.08;100778.80;107182;1282;73541;-81
2023/06/02 09:26:28;;;;;;;18.20;6.50;;;;;;;40.39;22.09;100782.09;107151;1281;61144;-82
2023/06/02 09:29:08;;;;;;;17.40;5.30;;;;;;;40.16;22.42;100780.83;107202;1281;61222;-82
2023/06/02 09:31:52;;;;;;;19.30;5.90;;;;;;;39.96;22.43;100776.77;107167;1282;75255;-82
2023/06/02 09:34:19;;;;;;;15.80;5.20;;;;;;;39.75;22.32;100776.41;107199;1282;73429;-81
2023/06/02 09:36:53;;;;;;;12.40;4.70;;;;;;;39.35;21.66;100770.85;107097;1283;73493;-82
2023/06/02 09:39:35;;;;;;;19.30;6.10;;;;;;;38.88;22.55;100768.17;107171;1282;61095;-83
2023/06/02 09:42:02;;;;;;;18.70;6.10;;;;;;;38.56;23.59;100763.14;107202;1282;60122;-80
2023/06/02 09:44:28;;;;;;;12.30;5.80;;;;;;;38.38;23.13;100762.86;107174;1282;74562;-81
2023/06/02 09:46:53;;;;;;;18.00;5.20;;;;;;;38.02;23.13;100763.95;106825;1282;59160;-80
2023/06/02 09:49:20;;;;;;;12.60;5.60;;;;;;;37.62;23.02;100760.05;107065;1283;59161;-80
2023/06/02 09:51:45;;;;;;;14.50;5.50;;;;;;;37.25;22.87;100754.26;107231;1282;59327;-80
2023/06/02 09:54:11;;;;;;;15.80;4.60;;;;;;;36.86;23.62;100756.77;107219;1282;59024;-80
2023/06/02 09:56:38;;;;;;;7.60;3.40;;;;;;;36.75;24.39;100754.70;107244;1282;59039;-80
2023/06/02 09:59:05;;;;;;;11.20;3.70;;;;;;;36.37;24.18;100753.11;107170;1282;59127;-79
2023/06/02 10:01:32;;;;;;;10.70;3.70;;;;;;;36.28;24.38;100755.32;107165;1282;59441;-82
2023/06/02 10:03:58;;;;;;;13.20;4.40;;;;;;;36.11;24.54;100751.11;107213;1282;58959;-80
2023/06/02 10:06:44;;;;;;;7.40;3.40;;;;;;;36.03;25.30;100748.27;107236;1282;59126;-80
2023/06/02 10:09:41;;;;;;;6.90;3.40;;;;;;;35.87;24.78;100745.61;107187;1282;75728;-80
2023/06/02 10:12:10;;;;;;;23.80;5.10;;;;;;;35.46;25.73;100745.08;107174;1282;74317;-81
2023/06/02 10:18:24;;;;;;;10.30;3.50;;;;;;;35.14;26.41;100740.24;107179;1282;60153;-81
2023/06/02 10:21:31;;;;;;;8.10;3.30;;;;;;;35.10;25.86;100736.88;107180;1281;61412;-83
2023/06/02 10:24:15;;;;;;;7.50;3.00;;;;;;;35.05;27.09;100732.06;107192;1282;74713;-83
2023/06/02 10:27:08;;;;;;;8.80;2.70;;;;;;;35.27;27.19;100737.72;107187;1282;74154;-80
2023/06/02 10:29:35;;;;;;;;;;;;;;;35.39;27.08;100731.34;107193;1281;72537;-81
2023/06/02 10:32:20;;;;;;;6.90;2.70;;;;;;;35.52;27.22;100733.27;107166;1282;60014;-80
2023/06/02 10:34:49;;;;;;;11.10;2.50;;;;;;;35.66;26.78;100728.00;106787;1282;59186;-80
2023/06/02 10:37:16;;;;;;;9.30;2.90;;;;;;;35.66;26.47;100727.74;107170;1282;75294;-81
2023/06/02 10:39:42;;;;;;;7.60;2.60;;;;;;;35.55;27.56;100727.54;107045;1282;72248;-80
2023/06/02 10:42:10;;;;;;;7.20;2.40;;;;;;;35.46;26.59;100729.77;106854;1282;59248;-80
2023/06/02 10:44:36;;;;;;;9.60;2.90;;;;;;;35.36;26.56;100728.20;106570;1282;60334;-81
2023/06/02 10:47:19;;;;;;;6.10;2.80;;;;;;;35.27;26.19;100724.98;107226;1282;59365;-80
2023/06/02 10:49:55;;;;;;;7.00;2.40;;;;;;;35.09;26.63;100722.83;107215;1282;74854;-80
2023/06/02 10:52:21;;;;;;;4.50;2.50;;;;;;;35.07;26.92;100718.13;107170;1281;74438;-80
2023/06/02 10:55:09;;;;;;;7.90;2.50;;;;;;;35.06;27.13;100722.13;106720;1283;59053;-79
2023/06/02 10:58:13;;;;;;;6.90;2.50;;;;;;;35.10;27.50;100714.70;106946;1282;59014;-80
2023/06/02 11:00:40;;;;;;;8.80;2.50;;;;;;;35.13;27.51;100715.53;107194;1282;60998;-80
2023/06/02 11:03:08;;;;;;;12.90;2.90;;;;;;;35.09;27.36;100712.47;106861;1283;75384;-80
2023/06/02 11:05:36;;;;;;;6.10;2.30;;;;;;;34.93;27.54;100711.67;107163;1282;74116;-83
2023/06/02 11:08:11;;;;;;;6.00;2.30;;;;;;;34.74;27.90;100710.13;107149;1282;73507;-83
2023/06/02 11:10:41;;;;;;;19.00;4.20;;;;;;;34.73;27.71;100714.45;107183;1282;61307;-82
2023/06/02 11:13:07;;;;;;;5.50;2.80;;;;;;;34.68;27.35;100715.50;106764;1281;60203;-80
2023/06/02 11:15:33;;;;;;;32.90;6.00;;;;;;;34.19;27.34;100710.63;106873;1283;59468;-80